Hancock, MI

10:48 PM EDT on July 02, 2015 (GMT -0400)
Forsman Road | | Change Station
CLOSE
Current Station
Personal Weather Station
Location: Hancock, MI
Elevation: 1116 ft
Nearby Weather Stations

Elev 1116 ft 47.15 °N, 88.52 °W | Updated 7 seconds ago

Overcast
Overcast
64.8 °F
Feels Like 64.8 °F
N
0.0
Wind Variable Wind from SSW
Gusts 0.0 mph

Today
High -- | Low -- °F
--% Chance of Precip.
Yesterday
High -- | Low -- °F
Precip. -- in
6:02 AM 9:53 PM
Full, 99% visible
Pressure 29.93 in
Visibility 10.0 miles
Clouds Overcast 10000 ft
Dew Point 60 °F
Humidity 83%
Rainfall 0.00 in
Snow Depth Not available.
UV 0 out of 12
Pollen 4.90 out of 12
Air Quality Not available.
Flu Activity Not available.
METAR KCMX 030153Z AUTO 23004KT 10SM OVC100 21/12 A2993 RMK AO2 SLP134 T02060122

More Conditions Fewer Conditions

Pressure 29.93 in
Visibility 10.0 miles
Clouds Overcast 10000 ft
Dew Point 60 °F
Humidity 83%
Rainfall 0.00 in
Snow Depth Not available.
UV 0 out of 12
Pollen 4.90 out of 12
Air Quality Not available.
Flu Activity Not available.
METAR KCMX 030153Z AUTO 23004KT 10SM OVC100 21/12 A2993 RMK AO2 SLP134 T02060122

More Conditions Fewer Conditions

10-Day Weather Forecast

×

Almanac

Astronomy

Jul. 02, 2015 Rise Set
Actual Time
Civil Twilight
Nautical Twilight
Astronomical Twilight
Moon
Length of Visible Light
Length of Day
Tomorrow will be .
, % of the Moon is Illuminated

Today's Extremes

State Highs State Lows

Community

WunderPhotos

Upload Photos

1,834,594 photos uploaded!

WunderBlogs® & News

Nearby

Air Quality

  Air Quality AQ Index Pollutant
Not available.

Snow Depth

Station Depth Elevation

Earthquake Activity

City Distance Mag. Time & Date
Minimum magnitude displayed is 2.5.

Coastal Water Temperatures

Place Temperature

Stations

Nearby Weather Stations

Station Location Temp. Windchill Dew Point Humidity Wind Precip. Elev Updated Type